sensor_id;sensor_type;location;lat;lon;timestamp;pressure;altitude;pressure_sealevel;temperature;humidity
25080;BME280;13071;48.868;9.996;2022-10-16T00:01:08;96422.56;;;14.65;100.00
25080;BME280;13071;48.868;9.996;2022-10-16T00:03:36;96411.22;;;14.63;100.00
25080;BME280;13071;48.868;9.996;2022-10-16T00:06:03;96410.50;;;14.66;100.00
25080;BME280;13071;48.868;9.996;2022-10-16T00:08:31;96407.41;;;14.67;100.00
25080;BME280;13071;48.868;9.996;2022-10-16T00:11:05;96410.72;;;14.57;100.00
25080;BME280;13071;48.868;9.996;2022-10-16T00:13:33;96403.22;;;14.51;100.00
25080;BME280;13071;48.868;9.996;2022-10-16T00:16:00;96399.00;;;14.53;100.00
25080;BME280;13071;48.868;9.996;2022-10-16T00:18:28;96405.03;;;14.43;100.00
25080;BME280;13071;48.868;9.996;2022-10-16T00:20:55;96415.91;;;14.43;100.00
25080;BME280;13071;48.868;9.996;2022-10-16T00:23:22;96415.63;;;14.48;100.00
25080;BME280;13071;48.868;9.996;2022-10-16T00:25:59;96418.63;;;14.43;100.00
25080;BME280;13071;48.868;9.996;2022-10-16T00:28:27;96419.13;;;14.49;100.00
25080;BME280;13071;48.868;9.996;2022-10-16T00:30:53;96419.19;;;14.52;100.00
25080;BME280;13071;48.868;9.996;2022-10-16T00:33:20;96426.63;;;14.55;100.00
25080;BME280;13071;48.868;9.996;2022-10-16T00:35:47;96429.25;;;14.48;100.00
25080;BME280;13071;48.868;9.996;2022-10-16T00:38:14;96431.91;;;14.45;100.00
25080;BME280;13071;48.868;9.996;2022-10-16T00:40:41;96428.38;;;14.44;100.00
25080;BME280;13071;48.868;9.996;2022-10-16T00:43:12;96427.59;;;14.44;100.00
25080;BME280;13071;48.868;9.996;2022-10-16T00:45:41;96428.72;;;14.43;100.00
25080;BME280;13071;48.868;9.996;2022-10-16T00:48:10;96425.22;;;14.42;100.00
25080;BME280;13071;48.868;9.996;2022-10-16T00:50:39;96426.44;;;14.45;100.00
25080;BME280;13071;48.868;9.996;2022-10-16T00:53:09;96438.47;;;14.44;100.00
25080;BME280;13071;48.868;9.996;2022-10-16T00:55:37;96434.63;;;14.45;100.00
25080;BME280;13071;48.868;9.996;2022-10-16T00:58:03;96419.47;;;14.28;100.00
25080;BME280;13071;48.868;9.996;2022-10-16T01:00:30;96423.41;;;14.31;100.00
25080;BME280;13071;48.868;9.996;2022-10-16T01:02:59;96424.72;;;14.37;100.00
25080;BME280;13071;48.868;9.996;2022-10-16T01:05:31;96425.06;;;14.35;100.00
25080;BME280;13071;48.868;9.996;2022-10-16T01:08:06;96421.09;;;14.33;100.00
25080;BME280;13071;48.868;9.996;2022-10-16T01:10:39;96425.69;;;14.28;100.00
25080;BME280;13071;48.868;9.996;2022-10-16T01:13:09;96429.16;;;14.25;100.00
25080;BME280;13071;48.868;9.996;2022-10-16T01:15:41;96429.16;;;14.25;100.00
25080;BME280;13071;48.868;9.996;2022-10-16T01:18:15;96429.91;;;14.26;100.00
25080;BME280;13071;48.868;9.996;2022-10-16T01:20:46;96434.22;;;14.27;100.00
25080;BME280;13071;48.868;9.996;2022-10-16T01:23:25;96432.28;;;14.27;100.00
25080;BME280;13071;48.868;9.996;2022-10-16T01:26:10;96431.50;;;14.27;100.00
25080;BME280;13071;48.868;9.996;2022-10-16T01:28:45;96429.16;;;14.25;100.00
25080;BME280;13071;48.868;9.996;2022-10-16T01:31:18;96431.09;;;14.25;100.00
25080;BME280;13071;48.868;9.996;2022-10-16T01:33:47;96430.69;;;14.26;100.00
25080;BME280;13071;48.868;9.996;2022-10-16T01:36:16;96426.34;;;14.22;100.00
25080;BME280;13071;48.868;9.996;2022-10-16T01:38:47;96434.50;;;14.22;100.00
25080;BME280;13071;48.868;9.996;2022-10-16T01:41:19;96435.28;;;14.22;100.00
25080;BME280;13071;48.868;9.996;2022-10-16T01:43:57;96437.59;;;14.20;100.00
25080;BME280;13071;48.868;9.996;2022-10-16T01:46:26;96433.06;;;14.09;100.00
25080;BME280;13071;48.868;9.996;2022-10-16T01:48:53;96448.59;;;14.08;100.00
25080;BME280;13071;48.868;9.996;2022-10-16T01:51:22;96445.38;;;14.03;100.00
25080;BME280;13071;48.868;9.996;2022-10-16T01:53:52;96447.44;;;13.90;100.00
25080;BME280;13071;48.868;9.996;2022-10-16T01:56:21;96445.06;;;13.89;100.00
25080;BME280;13071;48.868;9.996;2022-10-16T01:58:53;96438.75;;;13.84;100.00
25080;BME280;13071;48.868;9.996;2022-10-16T02:01:23;96451.84;;;13.79;100.00
25080;BME280;13071;48.868;9.996;2022-10-16T02:03:54;96458.34;;;13.74;100.00
25080;BME280;13071;48.868;9.996;2022-10-16T02:06:22;96445.09;;;13.73;100.00
25080;BME280;13071;48.868;9.996;2022-10-16T02:08:50;96445.53;;;13.75;100.00
25080;BME280;13071;48.868;9.996;2022-10-16T02:11:17;96447.47;;;13.74;100.00
25080;BME280;13071;48.868;9.996;2022-10-16T02:13:45;96447.81;;;13.73;100.00
25080;BME280;13071;48.868;9.996;2022-10-16T02:16:15;96452.91;;;13.74;100.00
25080;BME280;13071;48.868;9.996;2022-10-16T02:18:43;96438.00;;;13.68;100.00
25080;BME280;13071;48.868;9.996;2022-10-16T02:21:14;96437.66;;;13.70;100.00
25080;BME280;13071;48.868;9.996;2022-10-16T02:23:45;96441.97;;;13.71;100.00
25080;BME280;13071;48.868;9.996;2022-10-16T02:26:23;96433.34;;;13.69;100.00
25080;BME280;13071;48.868;9.996;2022-10-16T02:28:58;96433.34;;;13.69;100.00
25080;BME280;13071;48.868;9.996;2022-10-16T02:31:32;96435.47;;;13.75;100.00
25080;BME280;13071;48.868;9.996;2022-10-16T02:34:01;96441.75;;;13.79;100.00
25080;BME280;13071;48.868;9.996;2022-10-16T02:36:30;96442.38;;;13.73;100.00
25080;BME280;13071;48.868;9.996;2022-10-16T02:38:58;96450.53;;;13.73;100.00
25080;BME280;13071;48.868;9.996;2022-10-16T02:41:25;96435.34;;;13.72;100.00
25080;BME280;13071;48.868;9.996;2022-10-16T02:43:52;96443.63;;;13.75;100.00
25080;BME280;13071;48.868;9.996;2022-10-16T02:46:20;96435.00;;;13.73;100.00
25080;BME280;13071;48.868;9.996;2022-10-16T02:48:48;96440.09;;;13.75;100.00
25080;BME280;13071;48.868;9.996;2022-10-16T02:51:15;96443.97;;;13.74;100.00
25080;BME280;13071;48.868;9.996;2022-10-16T02:53:41;96447.03;;;13.72;100.00
25080;BME280;13071;48.868;9.996;2022-10-16T02:56:08;96459.06;;;13.71;100.00
25080;BME280;13071;48.868;9.996;2022-10-16T02:58:34;96470.44;;;13.77;100.00
25080;BME280;13071;48.868;9.996;2022-10-16T03:01:01;96468.16;;;13.79;100.00
25080;BME280;13071;48.868;9.996;2022-10-16T03:03:28;96476.66;;;13.77;100.00
25080;BME280;13071;48.868;9.996;2022-10-16T03:05:56;96471.22;;;13.77;100.00
25080;BME280;13071;48.868;9.996;2022-10-16T03:08:22;96470.88;;;13.79;100.00
25080;BME280;13071;48.868;9.996;2022-10-16T03:10:51;96469.06;;;13.67;100.00
25080;BME280;13071;48.868;9.996;2022-10-16T03:13:18;96468.47;;;13.58;100.00
25080;BME280;13071;48.868;9.996;2022-10-16T03:15:45;96472.84;;;13.63;100.00
25080;BME280;13071;48.868;9.996;2022-10-16T03:18:12;96461.84;;;13.75;100.00
25080;BME280;13071;48.868;9.996;2022-10-16T03:20:39;96434.22;;;13.73;100.00
25080;BME280;13071;48.868;9.996;2022-10-16T03:23:07;96426.06;;;13.73;100.00
25080;BME280;13071;48.868;9.996;2022-10-16T03:25:34;96425.53;;;13.67;100.00
25080;BME280;13071;48.868;9.996;2022-10-16T03:28:00;96420.28;;;13.74;100.00
25080;BME280;13071;48.868;9.996;2022-10-16T03:30:27;96424.66;;;13.79;100.00
25080;BME280;13071;48.868;9.996;2022-10-16T03:32:54;96410.25;;;13.78;100.00
25080;BME280;13071;48.868;9.996;2022-10-16T03:35:20;96402.88;;;13.79;100.00
25080;BME280;13071;48.868;9.996;2022-10-16T03:37:47;96425.91;;;14.01;100.00
25080;BME280;13071;48.868;9.996;2022-10-16T03:40:16;96420.38;;;13.97;100.00
25080;BME280;13071;48.868;9.996;2022-10-16T03:42:43;96426.59;;;13.98;100.00
25080;BME280;13071;48.868;9.996;2022-10-16T03:45:10;96423.53;;;13.99;100.00
25080;BME280;13071;48.868;9.996;2022-10-16T03:47:37;96431.75;;;14.03;100.00
25080;BME280;13071;48.868;9.996;2022-10-16T03:50:05;96435.63;;;14.02;100.00
25080;BME280;13071;48.868;9.996;2022-10-16T03:52:31;96445.38;;;14.03;100.00
25080;BME280;13071;48.868;9.996;2022-10-16T03:54:58;96436.84;;;14.04;100.00
25080;BME280;13071;48.868;9.996;2022-10-16T03:57:26;96445.03;;;14.04;100.00
25080;BME280;13071;48.868;9.996;2022-10-16T03:59:53;96443.44;;;14.03;100.00
25080;BME280;13071;48.868;9.996;2022-10-16T04:02:19;96440.72;;;14.03;100.00
25080;BME280;13071;48.868;9.996;2022-10-16T04:04:46;96445.38;;;14.03;100.00
25080;BME280;13071;48.868;9.996;2022-10-16T04:07:12;96435.63;;;14.02;100.00
25080;BME280;13071;48.868;9.996;2022-10-16T04:09:39;96437.13;;;13.99;100.00
25080;BME280;13071;48.868;9.996;2022-10-16T04:12:06;96442.66;;;14.03;100.00
25080;BME280;13071;48.868;9.996;2022-10-16T04:14:33;96447.03;;;14.07;100.00
25080;BME280;13071;48.868;9.996;2022-10-16T04:17:00;96441.50;;;14.04;100.00
25080;BME280;13071;48.868;9.996;2022-10-16T04:19:27;96439.50;;;14.01;100.00
25080;BME280;13071;48.868;9.996;2022-10-16T04:21:53;96450.75;;;13.99;100.00
25080;BME280;13071;48.868;9.996;2022-10-16T04:24:20;96455.41;;;13.99;100.00
25080;BME280;13071;48.868;9.996;2022-10-16T04:26:46;96456.19;;;13.99;100.00
25080;BME280;13071;48.868;9.996;2022-10-16T04:29:13;96458.56;;;14.01;100.00
25080;BME280;13071;48.868;9.996;2022-10-16T04:31:41;96464.28;;;13.96;100.00
25080;BME280;13071;48.868;9.996;2022-10-16T04:34:07;96458.03;;;13.95;100.00
25080;BME280;13071;48.868;9.996;2022-10-16T04:36:34;96466.81;;;13.89;100.00
25080;BME280;13071;48.868;9.996;2022-10-16T04:39:01;96457.34;;;13.82;100.00
25080;BME280;13071;48.868;9.996;2022-10-16T04:41:27;96474.06;;;13.81;100.00
25080;BME280;13071;48.868;9.996;2022-10-16T04:43:54;96471.34;;;13.81;100.00
25080;BME280;13071;48.868;9.996;2022-10-16T04:46:20;96469.75;;;13.80;100.00
25080;BME280;13071;48.868;9.996;2022-10-16T04:48:48;96476.31;;;13.79;100.00
25080;BME280;13071;48.868;9.996;2022-10-16T04:51:15;96489.84;;;13.75;100.00
25080;BME280;13071;48.868;9.996;2022-10-16T04:53:41;96485.91;;;13.73;100.00
25080;BME280;13071;48.868;9.996;2022-10-16T04:56:08;96487.41;;;13.70;100.00
25080;BME280;13071;48.868;9.996;2022-10-16T04:58:34;96483.44;;;13.68;100.00
25080;BME280;13071;48.868;9.996;2022-10-16T05:01:01;96482.66;;;13.67;100.00
25080;BME280;13071;48.868;9.996;2022-10-16T05:03:28;96475.28;;;13.68;100.00
25080;BME280;13071;48.868;9.996;2022-10-16T05:05:56;96477.13;;;13.64;100.00
25080;BME280;13071;48.868;9.996;2022-10-16T05:08:22;96470.91;;;13.63;100.00
25080;BME280;13071;48.868;9.996;2022-10-16T05:10:49;96475.75;;;13.54;100.00
25080;BME280;13071;48.868;9.996;2022-10-16T05:13:15;96478.00;;;13.52;100.00
25080;BME280;13071;48.868;9.996;2022-10-16T05:15:46;96484.25;;;13.53;100.00
25080;BME280;13071;48.868;9.996;2022-10-16T05:18:13;96481.53;;;13.53;100.00
25080;BME280;13071;48.868;9.996;2022-10-16T05:20:40;96482.75;;;13.55;100.00
25080;BME280;13071;48.868;9.996;2022-10-16T05:23:08;96494.06;;;13.57;100.00
25080;BME280;13071;48.868;9.996;2022-10-16T05:25:35;96498.09;;;13.63;100.00
25080;BME280;13071;48.868;9.996;2022-10-16T05:28:02;96494.69;;;13.66;100.00
25080;BME280;13071;48.868;9.996;2022-10-16T05:30:29;96490.72;;;13.64;100.00
25080;BME280;13071;48.868;9.996;2022-10-16T05:32:55;96498.63;;;13.69;100.00
25080;BME280;13071;48.868;9.996;2022-10-16T05:35:22;96490.91;;;13.71;100.00
25080;BME280;13071;48.868;9.996;2022-10-16T05:37:48;96500.22;;;13.70;100.00
25080;BME280;13071;48.868;9.996;2022-10-16T05:40:16;96501.41;;;13.72;100.00
25080;BME280;13071;48.868;9.996;2022-10-16T05:42:43;96507.66;;;13.73;100.00
25080;BME280;13071;48.868;9.996;2022-10-16T05:45:10;96499.16;;;13.59;100.00
25080;BME280;13071;48.868;9.996;2022-10-16T05:47:37;96507.66;;;13.57;100.00
25080;BME280;13071;48.868;9.996;2022-10-16T05:50:04;96511.97;;;13.58;100.00
25080;BME280;13071;48.868;9.996;2022-10-16T05:52:31;96504.66;;;13.62;100.00
25080;BME280;13071;48.868;9.996;2022-10-16T05:54:58;96511.78;;;13.67;100.00
25080;BME280;13071;48.868;9.996;2022-10-16T05:57:26;96506.44;;;13.70;100.00
25080;BME280;13071;48.868;9.996;2022-10-16T05:59:52;96503.06;;;13.77;100.00
25080;BME280;13071;48.868;9.996;2022-10-16T06:02:19;96507.13;;;13.83;100.00
25080;BME280;13071;48.868;9.996;2022-10-16T06:04:45;96510.28;;;13.85;100.00
25080;BME280;13071;48.868;9.996;2022-10-16T06:07:12;96518.16;;;13.90;100.00
25080;BME280;13071;48.868;9.996;2022-10-16T06:09:39;96519.84;;;13.95;100.00
25080;BME280;13071;48.868;9.996;2022-10-16T06:12:05;96522.19;;;13.96;100.00
25080;BME280;13071;48.868;9.996;2022-10-16T06:14:33;96522.97;;;13.97;100.00
25080;BME280;13071;48.868;9.996;2022-10-16T06:17:00;96520.50;;;14.07;100.00
25080;BME280;13071;48.868;9.996;2022-10-16T06:19:26;96533.41;;;14.10;100.00
25080;BME280;13071;48.868;9.996;2022-10-16T06:21:53;96530.81;;;14.17;100.00
25080;BME280;13071;48.868;9.996;2022-10-16T06:24:20;96531.91;;;14.13;100.00
25080;BME280;13071;48.868;9.996;2022-10-16T06:26:46;96527.69;;;14.15;100.00
25080;BME280;13071;48.868;9.996;2022-10-16T06:29:13;96522.03;;;13.89;100.00
25080;BME280;13071;48.868;9.996;2022-10-16T06:31:41;96530.91;;;13.86;100.00
25080;BME280;13071;48.868;9.996;2022-10-16T06:34:08;96535.56;;;13.86;100.00
25080;BME280;13071;48.868;9.996;2022-10-16T06:36:36;96537.75;;;13.96;100.00
25080;BME280;13071;48.868;9.996;2022-10-16T06:39:03;96537.09;;;14.02;100.00
25080;BME280;13071;48.868;9.996;2022-10-16T06:41:30;96548.22;;;14.13;100.00
25080;BME280;13071;48.868;9.996;2022-10-16T06:43:56;96560.16;;;14.24;100.00
25080;BME280;13071;48.868;9.996;2022-10-16T06:46:24;96566.47;;;14.44;100.00
25080;BME280;13071;48.868;9.996;2022-10-16T06:48:52;96580.66;;;14.53;100.00
25080;BME280;13071;48.868;9.996;2022-10-16T06:51:20;96581.22;;;14.62;100.00
25080;BME280;13071;48.868;9.996;2022-10-16T06:53:49;96573.50;;;14.64;100.00
25080;BME280;13071;48.868;9.996;2022-10-16T06:56:17;96572.09;;;14.70;100.00
25080;BME280;13071;48.868;9.996;2022-10-16T06:58:45;96581.97;;;14.78;100.00
25080;BME280;13071;48.868;9.996;2022-10-16T07:01:12;96586.06;;;14.88;100.00
25080;BME280;13071;48.868;9.996;2022-10-16T07:03:41;96571.88;;;14.98;100.00
25080;BME280;13071;48.868;9.996;2022-10-16T07:06:11;96576.38;;;15.09;100.00
25080;BME280;13071;48.868;9.996;2022-10-16T07:08:39;96576.75;;;15.08;100.00
25080;BME280;13071;48.868;9.996;2022-10-16T07:11:08;96583.09;;;15.16;100.00
25080;BME280;13071;48.868;9.996;2022-10-16T07:13:36;96579.38;;;15.24;100.00
25080;BME280;13071;48.868;9.996;2022-10-16T07:16:07;96576.84;;;15.34;100.00
25080;BME280;13071;48.868;9.996;2022-10-16T07:18:34;96569.53;;;15.38;100.00
25080;BME280;13071;48.868;9.996;2022-10-16T07:21:05;96563.84;;;15.47;100.00
25080;BME280;13071;48.868;9.996;2022-10-16T07:23:33;96579.63;;;15.57;100.00
25080;BME280;13071;48.868;9.996;2022-10-16T07:26:00;96591.75;;;15.60;100.00
25080;BME280;13071;48.868;9.996;2022-10-16T07:28:27;96593.22;;;15.76;100.00
25080;BME280;13071;48.868;9.996;2022-10-16T07:30:54;96598.13;;;15.90;100.00
25080;BME280;13071;48.868;9.996;2022-10-16T07:33:20;96601.88;;;16.05;100.00
25080;BME280;13071;48.868;9.996;2022-10-16T07:35:48;96595.00;;;16.14;100.00
25080;BME280;13071;48.868;9.996;2022-10-16T07:38:15;96602.03;;;16.15;100.00
25080;BME280;13071;48.868;9.996;2022-10-16T07:40:43;96608.09;;;16.28;100.00
25080;BME280;13071;48.868;9.996;2022-10-16T07:43:10;96614.88;;;16.37;100.00
25080;BME280;13071;48.868;9.996;2022-10-16T07:45:37;96607.06;;;16.36;100.00
25080;BME280;13071;48.868;9.996;2022-10-16T07:48:04;96604.00;;;16.41;100.00
25080;BME280;13071;48.868;9.996;2022-10-16T07:50:31;96613.16;;;16.52;100.00
25080;BME280;13071;48.868;9.996;2022-10-16T07:52:57;96616.88;;;16.40;100.00
25080;BME280;13071;48.868;9.996;2022-10-16T07:55:24;96615.75;;;16.45;100.00
25080;BME280;13071;48.868;9.996;2022-10-16T07:57:52;96627.22;;;16.54;100.00
25080;BME280;13071;48.868;9.996;2022-10-16T08:00:19;96634.81;;;16.64;100.00
25080;BME280;13071;48.868;9.996;2022-10-16T08:02:45;96631.44;;;16.74;100.00
25080;BME280;13071;48.868;9.996;2022-10-16T08:05:12;96634.28;;;16.81;100.00
25080;BME280;13071;48.868;9.996;2022-10-16T08:07:38;96644.94;;;16.90;100.00
25080;BME280;13071;48.868;9.996;2022-10-16T08:10:06;96632.53;;;16.96;100.00
25080;BME280;13071;48.868;9.996;2022-10-16T08:12:32;96639.28;;;17.06;100.00
25080;BME280;13071;48.868;9.996;2022-10-16T08:15:00;96649.06;;;17.07;100.00
25080;BME280;13071;48.868;9.996;2022-10-16T08:17:27;96656.50;;;17.06;100.00
25080;BME280;13071;48.868;9.996;2022-10-16T08:19:53;96652.03;;;16.95;100.00
25080;BME280;13071;48.868;9.996;2022-10-16T08:22:20;96654.81;;;16.98;100.00
25080;BME280;13071;48.868;9.996;2022-10-16T08:24:46;96650.56;;;17.01;100.00
25080;BME280;13071;48.868;9.996;2022-10-16T08:27:13;96656.81;;;17.01;100.00
25080;BME280;13071;48.868;9.996;2022-10-16T08:29:40;96662.91;;;16.91;100.00
25080;BME280;13071;48.868;9.996;2022-10-16T08:32:07;96674.50;;;16.81;100.00
25080;BME280;13071;48.868;9.996;2022-10-16T08:34:34;96673.47;;;16.93;100.00
25080;BME280;13071;48.868;9.996;2022-10-16T08:37:01;96674.72;;;16.99;100.00
25080;BME280;13071;48.868;9.996;2022-10-16T08:39:27;96665.84;;;17.05;100.00
25080;BME280;13071;48.868;9.996;2022-10-16T08:42:07;96670.28;;;16.87;100.00
25080;BME280;13071;48.868;9.996;2022-10-16T08:45:06;96670.28;;;16.87;100.00
25080;BME280;13071;48.868;9.996;2022-10-16T08:47:44;96667.47;;;16.83;100.00
25080;BME280;13071;48.868;9.996;2022-10-16T08:50:17;96663.31;;;16.93;100.00
25080;BME280;13071;48.868;9.996;2022-10-16T08:52:45;96674.25;;;16.93;100.00
25080;BME280;13071;48.868;9.996;2022-10-16T08:55:24;96672.81;;;17.03;100.00
25080;BME280;13071;48.868;9.996;2022-10-16T08:57:54;96669.72;;;17.04;100.00
25080;BME280;13071;48.868;9.996;2022-10-16T09:00:21;96664.16;;;16.97;100.00
25080;BME280;13071;48.868;9.996;2022-10-16T09:02:52;96668.06;;;16.96;100.00
25080;BME280;13071;48.868;9.996;2022-10-16T09:05:36;96676.78;;;17.05;100.00
25080;BME280;13071;48.868;9.996;2022-10-16T09:08:09;96673.16;;;16.98;100.00
25080;BME280;13071;48.868;9.996;2022-10-16T09:10:46;96683.41;;;17.04;100.00
25080;BME280;13071;48.868;9.996;2022-10-16T09:13:21;96687.13;;;17.19;100.00
25080;BME280;13071;48.868;9.996;2022-10-16T09:15:54;96688.09;;;17.34;100.00
25080;BME280;13071;48.868;9.996;2022-10-16T09:18:28;96696.44;;;17.44;100.00
25080;BME280;13071;48.868;9.996;2022-10-16T09:21:01;96700.09;;;17.55;100.00
25080;BME280;13071;48.868;9.996;2022-10-16T09:23:34;96699.50;;;17.73;100.00
25080;BME280;13071;48.868;9.996;2022-10-16T09:26:02;96698.16;;;17.93;100.00
25080;BME280;13071;48.868;9.996;2022-10-16T09:28:30;96695.22;;;18.12;100.00
25080;BME280;13071;48.868;9.996;2022-10-16T09:30:56;96709.47;;;18.28;100.00
25080;BME280;13071;48.868;9.996;2022-10-16T09:33:28;96713.47;;;18.38;100.00
25080;BME280;13071;48.868;9.996;2022-10-16T09:35:57;96708.84;;;18.45;100.00
25080;BME280;13071;48.868;9.996;2022-10-16T09:38:27;96709.25;;;18.47;100.00
25080;BME280;13071;48.868;9.996;2022-10-16T09:40:55;96698.28;;;18.47;100.00
25080;BME280;13071;48.868;9.996;2022-10-16T09:43:24;96713.59;;;18.52;100.00
25080;BME280;13071;48.868;9.996;2022-10-16T09:45:58;96718.75;;;18.53;100.00
25080;BME280;13071;48.868;9.996;2022-10-16T09:48:31;96723.41;;;18.53;100.00
25080;BME280;13071;48.868;9.996;2022-10-16T09:51:02;96717.19;;;18.56;100.00
25080;BME280;13071;48.868;9.996;2022-10-16T09:53:42;96716.03;;;18.61;100.00
25080;BME280;13071;48.868;9.996;2022-10-16T09:56:10;96722.75;;;18.67;100.00
25080;BME280;13071;48.868;9.996;2022-10-16T09:58:42;96713.38;;;18.71;100.00
25080;BME280;13071;48.868;9.996;2022-10-16T10:01:13;96712.75;;;18.88;100.00
25080;BME280;13071;48.868;9.996;2022-10-16T10:03:42;96719.03;;;18.96;99.29
25080;BME280;13071;48.868;9.996;2022-10-16T10:06:18;96717.94;;;19.08;98.56
25080;BME280;13071;48.868;9.996;2022-10-16T10:08:55;96711.31;;;19.12;98.09
25080;BME280;13071;48.868;9.996;2022-10-16T10:11:39;96718.88;;;19.33;96.61
25080;BME280;13071;48.868;9.996;2022-10-16T10:14:16;96714.50;;;19.25;98.00
25080;BME280;13071;48.868;9.996;2022-10-16T10:16:44;96715.38;;;19.39;96.91
25080;BME280;13071;48.868;9.996;2022-10-16T10:19:15;96727.19;;;19.44;96.32
25080;BME280;13071;48.868;9.996;2022-10-16T10:21:42;96719.00;;;19.51;94.15
25080;BME280;13071;48.868;9.996;2022-10-16T10:24:11;96719.47;;;19.67;93.62
25080;BME280;13071;48.868;9.996;2022-10-16T10:26:40;96727.41;;;19.97;91.64
25080;BME280;13071;48.868;9.996;2022-10-16T10:29:14;96721.53;;;20.09;89.03
25080;BME280;13071;48.868;9.996;2022-10-16T10:31:47;96727.41;;;20.00;87.86
25080;BME280;13071;48.868;9.996;2022-10-16T10:34:38;96710.13;;;20.00;88.73
25080;BME280;13071;48.868;9.996;2022-10-16T10:37:19;96716.78;;;19.95;88.81
25080;BME280;13071;48.868;9.996;2022-10-16T10:39:53;96715.59;;;19.89;88.14
25080;BME280;13071;48.868;9.996;2022-10-16T10:42:28;96713.34;;;20.26;83.70
25080;BME280;13071;48.868;9.996;2022-10-16T10:48:02;96719.66;;;20.45;82.81
25080;BME280;13071;48.868;9.996;2022-10-16T10:50:39;96717.72;;;20.56;83.18
25080;BME280;13071;48.868;9.996;2022-10-16T10:53:18;96715.34;;;20.79;78.91
25080;BME280;13071;48.868;9.996;2022-10-16T10:55:49;96730.28;;;20.89;80.66
25080;BME280;13071;48.868;9.996;2022-10-16T10:58:37;96734.22;;;20.81;76.88
25080;BME280;13071;48.868;9.996;2022-10-16T11:01:10;96730.69;;;20.80;77.46
25080;BME280;13071;48.868;9.996;2022-10-16T11:03:51;96730.69;;;20.91;75.53
25080;BME280;13071;48.868;9.996;2022-10-16T11:06:29;96727.53;;;20.78;73.85
25080;BME280;13071;48.868;9.996;2022-10-16T11:09:00;96721.66;;;20.62;74.85
25080;BME280;13071;48.868;9.996;2022-10-16T11:11:32;96724.00;;;20.56;75.37
25080;BME280;13071;48.868;9.996;2022-10-16T11:14:05;96727.94;;;20.66;75.28
25080;BME280;13071;48.868;9.996;2022-10-16T11:16:38;96734.59;;;20.68;73.77
25080;BME280;13071;48.868;9.996;2022-10-16T11:19:11;96731.88;;;20.61;76.73
25080;BME280;13071;48.868;9.996;2022-10-16T11:21:46;96740.50;;;20.74;73.54
25080;BME280;13071;48.868;9.996;2022-10-16T11:24:19;96727.94;;;20.69;76.33
25080;BME280;13071;48.868;9.996;2022-10-16T11:26:49;96722.81;;;20.79;76.75
25080;BME280;13071;48.868;9.996;2022-10-16T11:29:22;96728.72;;;20.70;76.65
25080;BME280;13071;48.868;9.996;2022-10-16T11:31:54;96725.56;;;20.75;76.24
25080;BME280;13071;48.868;9.996;2022-10-16T11:34:25;96731.06;;;20.75;73.14
25080;BME280;13071;48.868;9.996;2022-10-16T11:36:59;96728.31;;;20.79;70.71
25080;BME280;13071;48.868;9.996;2022-10-16T11:39:29;96728.69;;;20.74;72.33
25080;BME280;13071;48.868;9.996;2022-10-16T11:42:02;96729.13;;;20.72;74.95
25080;BME280;13071;48.868;9.996;2022-10-16T11:44:41;96727.53;;;20.82;71.92
25080;BME280;13071;48.868;9.996;2022-10-16T11:47:30;96728.31;;;20.79;71.88
25080;BME280;13071;48.868;9.996;2022-10-16T11:50:02;96723.19;;;20.84;71.37
25080;BME280;13071;48.868;9.996;2022-10-16T11:52:38;96726.75;;;20.67;71.99
25080;BME280;13071;48.868;9.996;2022-10-16T11:55:14;96724.00;;;20.74;74.46
25080;BME280;13071;48.868;9.996;2022-10-16T11:57:44;96723.63;;;20.72;75.71
25080;BME280;13071;48.868;9.996;2022-10-16T12:00:20;96722.41;;;20.87;74.23
25080;BME280;13071;48.868;9.996;2022-10-16T12:02:55;96721.63;;;20.94;72.24
25080;BME280;13071;48.868;9.996;2022-10-16T12:05:29;96729.09;;;20.79;73.46
25080;BME280;13071;48.868;9.996;2022-10-16T12:08:08;96722.03;;;20.78;72.27
25080;BME280;13071;48.868;9.996;2022-10-16T12:10:37;96725.19;;;20.80;72.38
25080;BME280;13071;48.868;9.996;2022-10-16T12:13:05;96724.00;;;20.85;70.89
25080;BME280;13071;48.868;9.996;2022-10-16T12:15:33;96717.31;;;20.79;71.01
25080;BME280;13071;48.868;9.996;2022-10-16T12:18:00;96726.72;;;20.78;72.99
25080;BME280;13071;48.868;9.996;2022-10-16T12:20:28;96723.22;;;20.70;74.72
25080;BME280;13071;48.868;9.996;2022-10-16T12:22:59;96727.53;;;20.60;76.15
25080;BME280;13071;48.868;9.996;2022-10-16T12:25:30;96714.16;;;20.80;73.54
25080;BME280;13071;48.868;9.996;2022-10-16T12:27:59;96724.78;;;20.78;72.44
25080;BME280;13071;48.868;9.996;2022-10-16T12:30:28;96729.88;;;20.94;72.21
25080;BME280;13071;48.868;9.996;2022-10-16T12:32:57;96716.94;;;20.69;74.42
25080;BME280;13071;48.868;9.996;2022-10-16T12:35:27;96720.03;;;20.82;72.99
25080;BME280;13071;48.868;9.996;2022-10-16T12:38:08;96714.91;;;21.09;72.83
25080;BME280;13071;48.868;9.996;2022-10-16T12:40:42;96722.78;;;21.25;71.70
25080;BME280;13071;48.868;9.996;2022-10-16T12:43:25;96714.91;;;21.23;72.04
25080;BME280;13071;48.868;9.996;2022-10-16T12:46:04;96716.09;;;21.19;72.70
25080;BME280;13071;48.868;9.996;2022-10-16T12:48:31;96716.50;;;21.14;71.41
25080;BME280;13071;48.868;9.996;2022-10-16T12:51:10;96716.09;;;21.04;71.00
25080;BME280;13071;48.868;9.996;2022-10-16T12:53:37;96707.84;;;21.08;69.86
25080;BME280;13071;48.868;9.996;2022-10-16T12:56:12;96716.88;;;21.23;71.22
25080;BME280;13071;48.868;9.996;2022-10-16T12:58:57;96714.16;;;21.19;71.25
25080;BME280;13071;48.868;9.996;2022-10-16T13:01:45;96709.84;;;21.15;70.48
25080;BME280;13071;48.868;9.996;2022-10-16T13:04:24;96712.94;;;21.13;70.27
25080;BME280;13071;48.868;9.996;2022-10-16T13:07:05;96720.84;;;21.00;69.17
25080;BME280;13071;48.868;9.996;2022-10-16T13:09:46;96727.53;;;20.85;69.50